sensor_id;sensor_type;location;lat;lon;timestamp;pressure;altitude;pressure_sealevel;temperature;humidity
37904;BME280;23738;50.422;18.758;2023-11-19T00:00:56;99002.48;;;-0.04;91.84
37904;BME280;23738;50.422;18.758;2023-11-19T00:03:25;99006.97;;;-0.04;91.82
37904;BME280;23738;50.422;18.758;2023-11-19T00:05:56;99009.35;;;-0.06;91.74
37904;BME280;23738;50.422;18.758;2023-11-19T00:08:25;99009.36;;;-0.08;91.96
37904;BME280;23738;50.422;18.758;2023-11-19T00:10:56;99011.66;;;-0.11;91.94
37904;BME280;23738;50.422;18.758;2023-11-19T00:13:26;99007.63;;;-0.15;91.92
37904;BME280;23738;50.422;18.758;2023-11-19T00:15:55;99004.62;;;-0.20;91.74
37904;BME280;23738;50.422;18.758;2023-11-19T00:18:26;99002.01;;;-0.24;91.79
37904;BME280;23738;50.422;18.758;2023-11-19T00:20:55;98995.88;;;-0.25;91.75
37904;BME280;23738;50.422;18.758;2023-11-19T00:23:25;98984.98;;;-0.24;91.84
37904;BME280;23738;50.422;18.758;2023-11-19T00:25:55;98987.52;;;-0.21;91.91
37904;BME280;23738;50.422;18.758;2023-11-19T00:28:24;98994.59;;;-0.20;91.77
37904;BME280;23738;50.422;18.758;2023-11-19T00:30:54;99002.80;;;-0.23;91.77
37904;BME280;23738;50.422;18.758;2023-11-19T00:33:23;99002.24;;;-0.27;91.81
37904;BME280;23738;50.422;18.758;2023-11-19T00:35:53;98997.46;;;-0.30;91.80
37904;BME280;23738;50.422;18.758;2023-11-19T00:38:24;98995.59;;;-0.33;91.85
37904;BME280;23738;50.422;18.758;2023-11-19T00:40:53;99007.20;;;-0.35;91.81
37904;BME280;23738;50.422;18.758;2023-11-19T00:43:23;99009.96;;;-0.35;91.70
37904;BME280;23738;50.422;18.758;2023-11-19T00:45:54;99010.30;;;-0.33;91.85
37904;BME280;23738;50.422;18.758;2023-11-19T00:48:23;99002.95;;;-0.36;91.70
37904;BME280;23738;50.422;18.758;2023-11-19T00:50:53;99008.09;;;-0.33;91.72
37904;BME280;23738;50.422;18.758;2023-11-19T00:53:23;98998.19;;;-0.35;91.94
37904;BME280;23738;50.422;18.758;2023-11-19T00:55:52;98984.36;;;-0.38;91.91
37904;BME280;23738;50.422;18.758;2023-11-19T00:58:22;98988.98;;;-0.39;91.84
37904;BME280;23738;50.422;18.758;2023-11-19T01:00:52;98996.15;;;-0.42;91.94
37904;BME280;23738;50.422;18.758;2023-11-19T01:03:22;98994.70;;;-0.44;91.87
37904;BME280;23738;50.422;18.758;2023-11-19T01:05:51;98984.13;;;-0.46;91.81
37904;BME280;23738;50.422;18.758;2023-11-19T01:08:21;98979.34;;;-0.44;91.71
37904;BME280;23738;50.422;18.758;2023-11-19T01:10:52;98975.36;;;-0.42;91.87
37904;BME280;23738;50.422;18.758;2023-11-19T01:13:22;98965.66;;;-0.42;91.76
37904;BME280;23738;50.422;18.758;2023-11-19T01:15:53;98960.37;;;-0.43;91.81
37904;BME280;23738;50.422;18.758;2023-11-19T01:18:24;98961.34;;;-0.44;91.95
37904;BME280;23738;50.422;18.758;2023-11-19T01:20:54;98956.02;;;-0.47;91.97
37904;BME280;23738;50.422;18.758;2023-11-19T01:23:23;98949.31;;;-0.49;91.96
37904;BME280;23738;50.422;18.758;2023-11-19T01:25:53;98944.89;;;-0.53;91.86
37904;BME280;23738;50.422;18.758;2023-11-19T01:28:22;98938.34;;;-0.55;91.60
37904;BME280;23738;50.422;18.758;2023-11-19T01:30:53;98925.20;;;-0.55;91.67
37904;BME280;23738;50.422;18.758;2023-11-19T01:33:23;98920.16;;;-0.55;91.58
37904;BME280;23738;50.422;18.758;2023-11-19T01:35:53;98922.61;;;-0.58;91.66
37904;BME280;23738;50.422;18.758;2023-11-19T01:38:22;98928.38;;;-0.60;91.63
37904;BME280;23738;50.422;18.758;2023-11-19T01:40:57;98927.67;;;-0.63;91.64
37904;BME280;23738;50.422;18.758;2023-11-19T01:43:38;98916.65;;;-0.67;91.60
37904;BME280;23738;50.422;18.758;2023-11-19T01:46:10;98910.41;;;-0.74;91.54
37904;BME280;23738;50.422;18.758;2023-11-19T01:48:42;98914.86;;;-0.76;91.55
37904;BME280;23738;50.422;18.758;2023-11-19T01:51:14;98907.59;;;-0.78;91.44
37904;BME280;23738;50.422;18.758;2023-11-19T01:53:45;98901.47;;;-0.77;91.53
37904;BME280;23738;50.422;18.758;2023-11-19T01:56:16;98894.73;;;-0.75;91.63
37904;BME280;23738;50.422;18.758;2023-11-19T01:58:47;98890.85;;;-0.76;91.38
37904;BME280;23738;50.422;18.758;2023-11-19T02:01:18;98881.45;;;-0.78;91.66
37904;BME280;23738;50.422;18.758;2023-11-19T02:03:47;98870.42;;;-0.79;91.63
37904;BME280;23738;50.422;18.758;2023-11-19T02:06:18;98852.88;;;-0.82;91.58
37904;BME280;23738;50.422;18.758;2023-11-19T02:08:47;98835.35;;;-0.85;91.71
37904;BME280;23738;50.422;18.758;2023-11-19T02:11:17;98828.39;;;-0.87;91.52
37904;BME280;23738;50.422;18.758;2023-11-19T02:13:47;98818.73;;;-0.89;91.62
37904;BME280;23738;50.422;18.758;2023-11-19T02:16:17;98813.49;;;-0.87;91.57
37904;BME280;23738;50.422;18.758;2023-11-19T02:18:46;98809.23;;;-0.85;91.56
37904;BME280;23738;50.422;18.758;2023-11-19T02:21:17;98809.81;;;-0.84;91.63
37904;BME280;23738;50.422;18.758;2023-11-19T02:23:46;98806.70;;;-0.86;91.53
37904;BME280;23738;50.422;18.758;2023-11-19T02:26:21;98798.95;;;-0.91;91.73
37904;BME280;23738;50.422;18.758;2023-11-19T02:28:53;98802.90;;;-0.93;91.47
37904;BME280;23738;50.422;18.758;2023-11-19T02:31:23;98788.98;;;-0.96;91.59
37904;BME280;23738;50.422;18.758;2023-11-19T02:33:53;98785.16;;;-0.97;91.62
37904;BME280;23738;50.422;18.758;2023-11-19T02:36:23;98779.56;;;-0.99;91.37
37904;BME280;23738;50.422;18.758;2023-11-19T02:38:53;98774.66;;;-0.98;91.44
37904;BME280;23738;50.422;18.758;2023-11-19T02:41:23;98766.96;;;-0.97;91.48
37904;BME280;23738;50.422;18.758;2023-11-19T02:43:52;98758.94;;;-0.96;91.50
37904;BME280;23738;50.422;18.758;2023-11-19T02:46:22;98751.20;;;-0.97;91.53
37904;BME280;23738;50.422;18.758;2023-11-19T02:48:52;98750.20;;;-0.99;91.58
37904;BME280;23738;50.422;18.758;2023-11-19T02:51:21;98751.98;;;-1.02;91.51
37904;BME280;23738;50.422;18.758;2023-11-19T02:53:51;98749.20;;;-1.06;91.45
37904;BME280;23738;50.422;18.758;2023-11-19T02:56:21;98741.13;;;-1.09;91.55
37904;BME280;23738;50.422;18.758;2023-11-19T02:58:54;98733.80;;;-1.15;91.53
37904;BME280;23738;50.422;18.758;2023-11-19T03:01:27;98741.80;;;-1.09;91.43
37904;BME280;23738;50.422;18.758;2023-11-19T03:04:00;98752.66;;;-1.06;91.49
37904;BME280;23738;50.422;18.758;2023-11-19T03:06:30;98764.19;;;-1.08;91.47
37904;BME280;23738;50.422;18.758;2023-11-19T03:09:00;98761.05;;;-1.10;91.48
37904;BME280;23738;50.422;18.758;2023-11-19T03:11:34;98757.03;;;-1.11;91.51
37904;BME280;23738;50.422;18.758;2023-11-19T03:14:04;98760.17;;;-1.11;91.84
37904;BME280;23738;50.422;18.758;2023-11-19T03:16:34;98740.19;;;-1.12;91.74
37904;BME280;23738;50.422;18.758;2023-11-19T03:19:03;98732.67;;;-1.11;91.79
37904;BME280;23738;50.422;18.758;2023-11-19T03:21:33;98730.55;;;-1.11;91.73
37904;BME280;23738;50.422;18.758;2023-11-19T03:24:03;98723.05;;;-1.08;91.59
37904;BME280;23738;50.422;18.758;2023-11-19T03:26:33;98722.73;;;-1.06;91.53
37904;BME280;23738;50.422;18.758;2023-11-19T03:29:03;98720.00;;;-1.06;91.49
37904;BME280;23738;50.422;18.758;2023-11-19T03:31:32;98715.05;;;-1.07;91.58
37904;BME280;23738;50.422;18.758;2023-11-19T03:34:02;98711.20;;;-1.07;91.62
37904;BME280;23738;50.422;18.758;2023-11-19T03:36:35;98701.35;;;-1.09;91.88
37904;BME280;23738;50.422;18.758;2023-11-19T03:39:05;98705.40;;;-1.10;91.84
37904;BME280;23738;50.422;18.758;2023-11-19T03:41:35;98697.02;;;-1.13;91.66
37904;BME280;23738;50.422;18.758;2023-11-19T03:44:04;98682.11;;;-1.14;91.73
37904;BME280;23738;50.422;18.758;2023-11-19T03:46:34;98682.66;;;-1.13;91.66
37904;BME280;23738;50.422;18.758;2023-11-19T03:49:04;98682.89;;;-1.09;91.77
37904;BME280;23738;50.422;18.758;2023-11-19T03:51:35;98679.16;;;-1.03;91.90
37904;BME280;23738;50.422;18.758;2023-11-19T03:54:05;98672.52;;;-0.99;91.98
37904;BME280;23738;50.422;18.758;2023-11-19T03:56:36;98669.41;;;-0.96;92.02
37904;BME280;23738;50.422;18.758;2023-11-19T03:59:06;98662.40;;;-0.96;92.13
37904;BME280;23738;50.422;18.758;2023-11-19T04:01:37;98656.23;;;-0.96;92.02
37904;BME280;23738;50.422;18.758;2023-11-19T04:04:07;98656.32;;;-0.97;92.04
37904;BME280;23738;50.422;18.758;2023-11-19T04:06:37;98650.92;;;-0.96;92.06
37904;BME280;23738;50.422;18.758;2023-11-19T04:09:07;98645.80;;;-0.93;92.05
37904;BME280;23738;50.422;18.758;2023-11-19T04:11:37;98651.17;;;-0.87;92.14
37904;BME280;23738;50.422;18.758;2023-11-19T04:14:08;98656.26;;;-0.82;92.24
37904;BME280;23738;50.422;18.758;2023-11-19T04:16:38;98650.37;;;-0.78;92.21
37904;BME280;23738;50.422;18.758;2023-11-19T04:19:08;98641.94;;;-0.75;92.33
37904;BME280;23738;50.422;18.758;2023-11-19T04:21:37;98636.86;;;-0.77;92.15
37904;BME280;23738;50.422;18.758;2023-11-19T04:24:10;98632.31;;;-0.81;91.93
37904;BME280;23738;50.422;18.758;2023-11-19T04:26:43;98631.29;;;-0.85;91.91
37904;BME280;23738;50.422;18.758;2023-11-19T04:29:14;98618.30;;;-0.85;91.99
37904;BME280;23738;50.422;18.758;2023-11-19T04:31:45;98607.88;;;-0.82;92.14
37904;BME280;23738;50.422;18.758;2023-11-19T04:34:15;98606.04;;;-0.77;92.32
37904;BME280;23738;50.422;18.758;2023-11-19T04:36:44;98608.84;;;-0.70;92.43
37904;BME280;23738;50.422;18.758;2023-11-19T04:39:14;98603.80;;;-0.66;92.56
37904;BME280;23738;50.422;18.758;2023-11-19T04:41:50;98602.77;;;-0.64;92.57
37904;BME280;23738;50.422;18.758;2023-11-19T04:44:21;98606.27;;;-0.64;92.49
37904;BME280;23738;50.422;18.758;2023-11-19T04:46:51;98618.97;;;-0.68;92.44
37904;BME280;23738;50.422;18.758;2023-11-19T04:49:21;98610.56;;;-0.70;92.40
37904;BME280;23738;50.422;18.758;2023-11-19T04:51:50;98603.99;;;-0.70;92.38
37904;BME280;23738;50.422;18.758;2023-11-19T04:54:20;98594.15;;;-0.68;92.38
37904;BME280;23738;50.422;18.758;2023-11-19T04:56:50;98588.94;;;-0.64;92.48
37904;BME280;23738;50.422;18.758;2023-11-19T04:59:20;98577.89;;;-0.60;92.53
37904;BME280;23738;50.422;18.758;2023-11-19T05:01:49;98571.59;;;-0.56;92.46
37904;BME280;23738;50.422;18.758;2023-11-19T05:04:19;98571.77;;;-0.53;92.65
37904;BME280;23738;50.422;18.758;2023-11-19T05:06:49;98570.54;;;-0.53;92.73
37904;BME280;23738;50.422;18.758;2023-11-19T05:09:18;98569.55;;;-0.54;92.61
37904;BME280;23738;50.422;18.758;2023-11-19T05:11:48;98557.91;;;-0.57;92.51
37904;BME280;23738;50.422;18.758;2023-11-19T05:14:18;98547.48;;;-0.58;92.49
37904;BME280;23738;50.422;18.758;2023-11-19T05:16:48;98540.72;;;-0.58;92.38
37904;BME280;23738;50.422;18.758;2023-11-19T05:19:18;98539.43;;;-0.53;92.49
37904;BME280;23738;50.422;18.758;2023-11-19T05:21:47;98530.01;;;-0.49;92.59
37904;BME280;23738;50.422;18.758;2023-11-19T05:24:20;98522.77;;;-0.45;92.84
37904;BME280;23738;50.422;18.758;2023-11-19T05:26:50;98518.95;;;-0.45;92.81
37904;BME280;23738;50.422;18.758;2023-11-19T05:29:21;98507.28;;;-0.46;92.67
37904;BME280;23738;50.422;18.758;2023-11-19T05:31:50;98497.09;;;-0.48;92.80
37904;BME280;23738;50.422;18.758;2023-11-19T05:34:20;98494.02;;;-0.48;92.68
37904;BME280;23738;50.422;18.758;2023-11-19T05:36:50;98493.90;;;-0.47;92.66
37904;BME280;23738;50.422;18.758;2023-11-19T05:39:20;98499.01;;;-0.44;92.63
37904;BME280;23738;50.422;18.758;2023-11-19T05:41:50;98498.58;;;-0.44;92.68
37904;BME280;23738;50.422;18.758;2023-11-19T05:44:20;98498.88;;;-0.45;92.57
37904;BME280;23738;50.422;18.758;2023-11-19T05:46:50;98502.74;;;-0.45;92.74
37904;BME280;23738;50.422;18.758;2023-11-19T05:49:19;98514.40;;;-0.46;92.85
37904;BME280;23738;50.422;18.758;2023-11-19T05:51:49;98513.02;;;-0.48;92.81
37904;BME280;23738;50.422;18.758;2023-11-19T05:54:19;98507.18;;;-0.49;92.88
37904;BME280;23738;50.422;18.758;2023-11-19T05:56:50;98511.90;;;-0.45;93.08
37904;BME280;23738;50.422;18.758;2023-11-19T05:59:22;98510.25;;;-0.42;93.12
37904;BME280;23738;50.422;18.758;2023-11-19T06:01:53;98520.97;;;-0.32;93.38
37904;BME280;23738;50.422;18.758;2023-11-19T06:04:22;98517.04;;;-0.25;93.65
37904;BME280;23738;50.422;18.758;2023-11-19T06:06:52;98521.45;;;-0.22;93.43
37904;BME280;23738;50.422;18.758;2023-11-19T06:09:23;98514.99;;;-0.21;93.40
37904;BME280;23738;50.422;18.758;2023-11-19T06:11:52;98510.43;;;-0.20;93.59
37904;BME280;23738;50.422;18.758;2023-11-19T06:14:23;98501.04;;;-0.20;93.46
37904;BME280;23738;50.422;18.758;2023-11-19T06:16:53;98495.52;;;-0.20;93.37
37904;BME280;23738;50.422;18.758;2023-11-19T06:19:22;98496.01;;;-0.14;93.46
37904;BME280;23738;50.422;18.758;2023-11-19T06:21:53;98495.44;;;-0.09;93.46
37904;BME280;23738;50.422;18.758;2023-11-19T06:24:23;98493.75;;;-0.08;93.60
37904;BME280;23738;50.422;18.758;2023-11-19T06:26:52;98486.69;;;-0.08;93.56
37904;BME280;23738;50.422;18.758;2023-11-19T06:29:22;98476.66;;;-0.08;93.69
37904;BME280;23738;50.422;18.758;2023-11-19T06:31:52;98463.54;;;-0.09;93.81
37904;BME280;23738;50.422;18.758;2023-11-19T06:34:21;98463.05;;;-0.09;93.66
37904;BME280;23738;50.422;18.758;2023-11-19T06:36:51;98458.25;;;-0.06;93.69
37904;BME280;23738;50.422;18.758;2023-11-19T06:39:21;98460.73;;;-0.00;93.70
37904;BME280;23738;50.422;18.758;2023-11-19T06:41:50;98456.00;;;0.04;93.79
37904;BME280;23738;50.422;18.758;2023-11-19T06:44:20;98442.37;;;0.08;93.90
37904;BME280;23738;50.422;18.758;2023-11-19T06:46:51;98431.67;;;0.09;93.87
37904;BME280;23738;50.422;18.758;2023-11-19T06:49:23;98430.00;;;0.08;93.90
37904;BME280;23738;50.422;18.758;2023-11-19T06:51:53;98428.25;;;0.09;94.12
37904;BME280;23738;50.422;18.758;2023-11-19T06:54:22;98432.98;;;0.12;94.17
37904;BME280;23738;50.422;18.758;2023-11-19T06:56:52;98436.57;;;0.16;94.21
37904;BME280;23738;50.422;18.758;2023-11-19T06:59:22;98432.81;;;0.22;94.28
37904;BME280;23738;50.422;18.758;2023-11-19T07:01:51;98435.40;;;0.25;94.05
37904;BME280;23738;50.422;18.758;2023-11-19T07:04:21;98423.70;;;0.28;94.21
37904;BME280;23738;50.422;18.758;2023-11-19T07:06:51;98414.46;;;0.29;94.36
37904;BME280;23738;50.422;18.758;2023-11-19T07:09:21;98412.85;;;0.30;94.35
37904;BME280;23738;50.422;18.758;2023-11-19T07:11:51;98412.46;;;0.30;94.39
37904;BME280;23738;50.422;18.758;2023-11-19T07:14:21;98408.69;;;0.32;94.40
37904;BME280;23738;50.422;18.758;2023-11-19T07:16:52;98409.93;;;0.35;94.42
37904;BME280;23738;50.422;18.758;2023-11-19T07:19:22;98414.70;;;0.42;94.43
37904;BME280;23738;50.422;18.758;2023-11-19T07:21:52;98417.34;;;0.47;94.53
37904;BME280;23738;50.422;18.758;2023-11-19T07:24:22;98422.17;;;0.51;94.61
37904;BME280;23738;50.422;18.758;2023-11-19T07:26:52;98421.93;;;0.54;94.60
37904;BME280;23738;50.422;18.758;2023-11-19T07:29:22;98424.11;;;0.56;94.60
37904;BME280;23738;50.422;18.758;2023-11-19T07:31:52;98414.20;;;0.59;94.88
37904;BME280;23738;50.422;18.758;2023-11-19T07:34:22;98404.08;;;0.61;94.86
37904;BME280;23738;50.422;18.758;2023-11-19T07:36:51;98388.59;;;0.65;94.76
37904;BME280;23738;50.422;18.758;2023-11-19T07:39:21;98379.86;;;0.70;94.81
37904;BME280;23738;50.422;18.758;2023-11-19T07:41:51;98375.82;;;0.76;94.62
37904;BME280;23738;50.422;18.758;2023-11-19T07:44:21;98383.67;;;0.80;94.90
37904;BME280;23738;50.422;18.758;2023-11-19T07:46:50;98371.75;;;0.81;94.88
37904;BME280;23738;50.422;18.758;2023-11-19T07:49:20;98357.33;;;0.83;95.06
37904;BME280;23738;50.422;18.758;2023-11-19T07:51:50;98349.19;;;0.83;95.06
37904;BME280;23738;50.422;18.758;2023-11-19T07:54:20;98344.23;;;0.84;95.08
37904;BME280;23738;50.422;18.758;2023-11-19T07:56:50;98341.47;;;0.89;95.03
37904;BME280;23738;50.422;18.758;2023-11-19T07:59:20;98338.57;;;0.93;95.09
37904;BME280;23738;50.422;18.758;2023-11-19T08:01:49;98338.07;;;0.98;94.87
37904;BME280;23738;50.422;18.758;2023-11-19T08:04:19;98344.83;;;1.02;95.09
37904;BME280;23738;50.422;18.758;2023-11-19T08:06:49;98340.98;;;1.04;95.10
37904;BME280;23738;50.422;18.758;2023-11-19T08:09:19;98335.48;;;1.05;95.13
37904;BME280;23738;50.422;18.758;2023-11-19T08:11:49;98336.28;;;1.06;95.17
37904;BME280;23738;50.422;18.758;2023-11-19T08:14:19;98332.25;;;1.12;95.22
37904;BME280;23738;50.422;18.758;2023-11-19T08:16:49;98327.59;;;1.17;95.21
37904;BME280;23738;50.422;18.758;2023-11-19T08:19:18;98319.47;;;1.20;95.20
37904;BME280;23738;50.422;18.758;2023-11-19T08:21:48;98325.25;;;1.22;95.04
37904;BME280;23738;50.422;18.758;2023-11-19T08:24:18;98326.72;;;1.23;95.13
37904;BME280;23738;50.422;18.758;2023-11-19T08:26:48;98329.65;;;1.23;95.08
37904;BME280;23738;50.422;18.758;2023-11-19T08:29:18;98320.07;;;1.22;94.97
37904;BME280;23738;50.422;18.758;2023-11-19T08:31:47;98315.72;;;1.18;94.87
37904;BME280;23738;50.422;18.758;2023-11-19T08:34:18;98315.61;;;1.18;95.04
37904;BME280;23738;50.422;18.758;2023-11-19T08:36:51;98312.25;;;1.20;94.92
37904;BME280;23738;50.422;18.758;2023-11-19T08:39:21;98318.01;;;1.23;94.85
37904;BME280;23738;50.422;18.758;2023-11-19T08:41:51;98320.79;;;1.27;95.07
37904;BME280;23738;50.422;18.758;2023-11-19T08:44:21;98322.92;;;1.30;95.14
37904;BME280;23738;50.422;18.758;2023-11-19T08:46:51;98322.07;;;1.31;95.18
37904;BME280;23738;50.422;18.758;2023-11-19T08:49:21;98315.50;;;1.31;95.29
37904;BME280;23738;50.422;18.758;2023-11-19T08:51:51;98301.49;;;1.32;95.19
37904;BME280;23738;50.422;18.758;2023-11-19T08:54:21;98285.85;;;1.35;95.10
37904;BME280;23738;50.422;18.758;2023-11-19T08:56:51;98281.20;;;1.37;95.00
37904;BME280;23738;50.422;18.758;2023-11-19T08:59:20;98269.82;;;1.40;95.03
37904;BME280;23738;50.422;18.758;2023-11-19T09:01:50;98265.17;;;1.43;95.10
37904;BME280;23738;50.422;18.758;2023-11-19T09:04:19;98266.63;;;1.46;95.10
37904;BME280;23738;50.422;18.758;2023-11-19T09:06:50;98273.20;;;1.48;95.23
37904;BME280;23738;50.422;18.758;2023-11-19T09:09:20;98268.14;;;1.49;95.18
37904;BME280;23738;50.422;18.758;2023-11-19T09:11:51;98271.65;;;1.50;95.26
37904;BME280;23738;50.422;18.758;2023-11-19T09:14:21;98268.92;;;1.53;95.57
37904;BME280;23738;50.422;18.758;2023-11-19T09:16:54;98268.34;;;1.63;95.37
37904;BME280;23738;50.422;18.758;2023-11-19T09:19:24;98261.66;;;1.65;95.50
37904;BME280;23738;50.422;18.758;2023-11-19T09:21:54;98247.04;;;1.69;95.21
37904;BME280;23738;50.422;18.758;2023-11-19T09:24:24;98239.43;;;1.74;95.14
37904;BME280;23738;50.422;18.758;2023-11-19T09:26:53;98239.66;;;1.79;95.44
37904;BME280;23738;50.422;18.758;2023-11-19T09:29:24;98230.38;;;1.82;95.53
37904;BME280;23738;50.422;18.758;2023-11-19T09:31:54;98225.79;;;1.84;95.40
37904;BME280;23738;50.422;18.758;2023-11-19T09:34:24;98223.45;;;1.90;95.37
37904;BME280;23738;50.422;18.758;2023-11-19T09:36:54;98216.23;;;2.00;95.34
37904;BME280;23738;50.422;18.758;2023-11-19T09:39:23;98214.88;;;2.06;95.34
37904;BME280;23738;50.422;18.758;2023-11-19T09:41:54;98211.75;;;2.11;95.54
37904;BME280;23738;50.422;18.758;2023-11-19T09:44:23;98202.30;;;2.14;95.12
37904;BME280;23738;50.422;18.758;2023-11-19T09:46:53;98188.98;;;2.15;95.25
37904;BME280;23738;50.422;18.758;2023-11-19T09:49:26;98187.95;;;2.18;95.27
37904;BME280;23738;50.422;18.758;2023-11-19T09:51:57;98185.45;;;2.24;95.06
37904;BME280;23738;50.422;18.758;2023-11-19T09:54:27;98184.53;;;2.29;95.13
37904;BME280;23738;50.422;18.758;2023-11-19T09:56:58;98176.20;;;2.35;95.37
37904;BME280;23738;50.422;18.758;2023-11-19T09:59:32;98165.14;;;2.38;95.16
37904;BME280;23738;50.422;18.758;2023-11-19T10:02:03;98160.14;;;2.39;95.18
37904;BME280;23738;50.422;18.758;2023-11-19T10:04:35;98147.30;;;2.39;95.16
37904;BME280;23738;50.422;18.758;2023-11-19T10:07:06;98147.75;;;2.39;95.18
37904;BME280;23738;50.422;18.758;2023-11-19T10:09:37;98147.77;;;2.39;94.88
37904;BME280;23738;50.422;18.758;2023-11-19T10:12:08;98149.45;;;2.40;94.95
37904;BME280;23738;50.422;18.758;2023-11-19T10:14:39;98145.18;;;2.39;94.84
37904;BME280;23738;50.422;18.758;2023-11-19T10:17:10;98133.12;;;2.38;94.75
37904;BME280;23738;50.422;18.758;2023-11-19T10:19:41;98131.17;;;2.35;94.95
37904;BME280;23738;50.422;18.758;2023-11-19T10:22:12;98126.54;;;2.31;94.52
37904;BME280;23738;50.422;18.758;2023-11-19T10:24:43;98120.23;;;2.31;95.04
37904;BME280;23738;50.422;18.758;2023-11-19T10:27:12;98113.35;;;2.30;94.77
37904;BME280;23738;50.422;18.758;2023-11-19T10:29:47;98110.82;;;2.31;94.57
37904;BME280;23738;50.422;18.758;2023-11-19T10:32:17;98105.31;;;2.33;94.62
37904;BME280;23738;50.422;18.758;2023-11-19T10:34:46;98096.95;;;2.31;94.50
37904;BME280;23738;50.422;18.758;2023-11-19T10:37:30;98077.25;;;2.30;94.99
37904;BME280;23738;50.422;18.758;2023-11-19T10:40:00;98068.14;;;2.29;94.84
37904;BME280;23738;50.422;18.758;2023-11-19T10:42:33;98063.92;;;2.27;94.51
37904;BME280;23738;50.422;18.758;2023-11-19T10:45:03;98059.17;;;2.27;94.60
37904;BME280;23738;50.422;18.758;2023-11-19T10:47:34;98061.43;;;2.28;94.62
37904;BME280;23738;50.422;18.758;2023-11-19T10:50:06;98060.48;;;2.29;94.67
37904;BME280;23738;50.422;18.758;2023-11-19T10:52:36;98057.88;;;2.27;94.52
37904;BME280;23738;50.422;18.758;2023-11-19T10:55:08;98052.06;;;2.23;94.34
37904;BME280;23738;50.422;18.758;2023-11-19T10:57:44;98054.06;;;2.17;94.61
37904;BME280;23738;50.422;18.758;2023-11-19T11:00:20;98050.16;;;2.11;94.57
37904;BME280;23738;50.422;18.758;2023-11-19T11:02:56;98048.73;;;2.10;94.63
37904;BME280;23738;50.422;18.758;2023-11-19T11:05:27;98044.72;;;2.10;94.43
37904;BME280;23738;50.422;18.758;2023-11-19T11:07:59;98035.23;;;2.10;94.60
37904;BME280;23738;50.422;18.758;2023-11-19T11:10:30;98030.39;;;2.06;94.44
37904;BME280;23738;50.422;18.758;2023-11-19T11:13:05;98024.55;;;2.02;94.62
37904;BME280;23738;50.422;18.758;2023-11-19T11:15:35;98012.39;;;1.94;94.43
37904;BME280;23738;50.422;18.758;2023-11-19T11:18:08;98010.54;;;1.90;94.51
37904;BME280;23738;50.422;18.758;2023-11-19T11:20:38;98008.11;;;1.88;94.62
37904;BME280;23738;50.422;18.758;2023-11-19T11:23:22;98002.00;;;1.87;94.50
37904;BME280;23738;50.422;18.758;2023-11-19T11:26:04;97996.67;;;1.86;94.49
37904;BME280;23738;50.422;18.758;2023-11-19T11:28:46;97992.71;;;1.83;94.57
37904;BME280;23738;50.422;18.758;2023-11-19T11:31:29;97990.13;;;1.77;94.69
37904;BME280;23738;50.422;18.758;2023-11-19T11:34:46;97985.69;;;1.74;94.94
37904;BME280;23738;50.422;18.758;2023-11-19T11:37:26;97979.98;;;1.73;94.96
37904;BME280;23738;50.422;18.758;2023-11-19T11:40:02;97983.05;;;1.77;94.50
37904;BME280;23738;50.422;18.758;2023-11-19T11:42:38;97988.70;;;1.80;94.85
37904;BME280;23738;50.422;18.758;2023-11-19T11:45:10;97986.96;;;1.83;95.21
37904;BME280;23738;50.422;18.758;2023-11-19T11:48:10;97984.06;;;1.82;95.03
37904;BME280;23738;50.422;18.758;2023-11-19T11:50:54;97978.88;;;1.81;94.94
37904;BME280;23738;50.422;18.758;2023-11-19T11:53:25;97965.86;;;1.74;95.05
37904;BME280;23738;50.422;18.758;2023-11-19T11:55:56;97961.55;;;1.72;95.07
37904;BME280;23738;50.422;18.758;2023-11-19T11:58:35;97960.52;;;1.72;94.98
37904;BME280;23738;50.422;18.758;2023-11-19T12:01:06;97957.83;;;1.74;95.20
37904;BME280;23738;50.422;18.758;2023-11-19T12:03:39;97957.92;;;1.78;95.11
37904;BME280;23738;50.422;18.758;2023-11-19T12:06:09;97954.17;;;1.76;95.06
37904;BME280;23738;50.422;18.758;2023-11-19T12:08:40;97949.73;;;1.74;95.12
37904;BME280;23738;50.422;18.758;2023-11-19T12:11:10;97942.48;;;1.72;95.09
37904;BME280;23738;50.422;18.758;2023-11-19T12:13:54;97943.91;;;1.71;95.37
37904;BME280;23738;50.422;18.758;2023-11-19T12:16:30;97946.08;;;1.74;95.34
37904;BME280;23738;50.422;18.758;2023-11-19T12:19:05;97942.36;;;1.78;95.38
37904;BME280;23738;50.422;18.758;2023-11-19T12:21:36;97934.90;;;1.81;95.35
37904;BME280;23738;50.422;18.758;2023-11-19T12:24:08;97928.30;;;1.83;95.36
37904;BME280;23738;50.422;18.758;2023-11-19T12:26:39;97921.62;;;1.80;95.55
37904;BME280;23738;50.422;18.758;2023-11-19T12:29:09;97915.77;;;1.83;95.79
37904;BME280;23738;50.422;18.758;2023-11-19T12:31:39;97912.89;;;1.85;95.51
37904;BME280;23738;50.422;18.758;2023-11-19T12:34:13;97915.55;;;1.88;95.57
37904;BME280;23738;50.422;18.758;2023-11-19T12:36:43;97907.15;;;1.91;95.46
37904;BME280;23738;50.422;18.758;2023-11-19T12:39:13;97898.59;;;1.91;95.49
37904;BME280;23738;50.422;18.758;2023-11-19T12:41:55;97894.39;;;1.90;95.83
37904;BME280;23738;50.422;18.758;2023-11-19T12:44:27;97897.08;;;1.89;95.82
37904;BME280;23738;50.422;18.758;2023-11-19T12:47:05;97903.58;;;1.90;95.63
37904;BME280;23738;50.422;18.758;2023-11-19T12:49:35;97898.74;;;1.88;95.89
37904;BME280;23738;50.422;18.758;2023-11-19T12:52:13;97892.20;;;1.91;96.05
37904;BME280;23738;50.422;18.758;2023-11-19T12:54:42;97890.91;;;1.95;95.97
37904;BME280;23738;50.422;18.758;2023-11-19T12:57:12;97884.05;;;1.98;96.11
37904;BME280;23738;50.422;18.758;2023-11-19T12:59:42;97881.35;;;1.98;96.37
37904;BME280;23738;50.422;18.758;2023-11-19T13:02:12;97880.82;;;1.97;96.11
37904;BME280;23738;50.422;18.758;2023-11-19T13:04:42;97882.29;;;1.96;96.11
37904;BME280;23738;50.422;18.758;2023-11-19T13:07:12;97880.59;;;1.97;96.10
37904;BME280;23738;50.422;18.758;2023-11-19T13:09:42;97862.39;;;2.00;96.19
37904;BME280;23738;50.422;18.758;2023-11-19T13:12:16;97866.69;;;2.01;95.95
37904;BME280;23738;50.422;18.758;2023-11-19T13:14:45;97873.29;;;2.01;96.35